Time;durP1;ratioP1;P1;durP2;ratioP2;P2;SDS_P1;SDS_P2;PMS_P1;PMS_P2;Temp;Humidity;BMP_temperature;BMP_pressure;BME280_temperature;BME280_humidity;BME280_pressure;Samples;Min_cycle;Max_cycle;Signal;HPM_P1;HPM_P2
2022/06/19 00:01:35;;;;;;;4.15;2.60;;;21.20;91.90;;;;;;5047876;28;20064;-50
2022/06/19 00:04:03;;;;;;;4.55;2.50;;;21.10;92.20;;;;;;5048542;28;20052;-49
2022/06/19 00:06:29;;;;;;;3.08;2.33;;;21.10;92.40;;;;;;5048181;28;20032;-48
2022/06/19 00:08:55;;;;;;;4.45;2.97;;;21.10;92.70;;;;;;5048426;28;20124;-49
2022/06/19 00:11:22;;;;;;;4.07;2.42;;;21.10;92.90;;;;;;5046338;28;20078;-50
2022/06/19 00:13:48;;;;;;;5.70;2.65;;;21.00;93.20;;;;;;5048404;28;20498;-50
2022/06/19 00:16:15;;;;;;;5.82;2.35;;;21.00;93.50;;;;;;5048410;28;20021;-51
2022/06/19 00:18:41;;;;;;;4.57;2.92;;;21.00;93.80;;;;;;5048343;28;20032;-51
2022/06/19 00:21:08;;;;;;;4.25;2.67;;;20.90;94.20;;;;;;5048001;28;20378;-51
2022/06/19 00:23:34;;;;;;;5.55;2.50;;;20.90;94.50;;;;;;5048326;28;20033;-50
2022/06/19 00:26:00;;;;;;;4.18;2.53;;;20.80;94.90;;;;;;5048378;28;20075;-52
2022/06/19 00:28:27;;;;;;;3.08;2.50;;;20.80;95.20;;;;;;5048523;28;20110;-51
2022/06/19 00:30:52;;;;;;;7.00;2.90;;;20.80;95.50;;;;;;5046200;28;20440;-49
2022/06/19 00:33:19;;;;;;;3.92;2.47;;;20.70;96.00;;;;;;5048289;28;20108;-51
2022/06/19 00:35:45;;;;;;;3.72;2.65;;;20.70;96.00;;;;;;5047068;28;20036;-51
2022/06/19 00:38:11;;;;;;;4.20;2.80;;;20.70;96.10;;;;;;5046935;28;20021;-51
2022/06/19 00:40:36;;;;;;;3.28;2.47;;;20.70;96.60;;;;;;5047615;28;20033;-50
2022/06/19 00:43:02;;;;;;;3.85;2.60;;;20.60;96.80;;;;;;5048109;28;20141;-51
2022/06/19 00:45:30;;;;;;;6.10;3.13;;;20.60;97.10;;;;;;5048426;28;20471;-51
2022/06/19 00:47:56;;;;;;;2.90;2.38;;;20.60;97.30;;;;;;5048145;28;20044;-51
2022/06/19 00:50:33;;;;;;;6.38;2.97;;;20.60;97.50;;;;;;5047313;28;20466;-51
2022/06/19 00:53:01;;;;;;;3.78;2.55;;;20.50;97.80;;;;;;5048041;28;20382;-51
2022/06/19 00:55:29;;;;;;;7.93;3.20;;;20.50;98.00;;;;;;5048273;28;20470;-48
2022/06/19 00:58:04;;;;;;;5.25;2.70;;;20.50;98.20;;;;;;5048289;28;20029;-51
2022/06/19 01:00:30;;;;;;;5.13;2.80;;;20.40;98.50;;;;;;5047158;28;20028;-51
2022/06/19 01:03:00;;;;;;;8.10;3.45;;;20.40;98.80;;;;;;5047931;28;20029;-48
2022/06/19 01:05:27;;;;;;;9.60;3.58;;;20.40;99.00;;;;;;5048230;28;20032;-51
2022/06/19 01:07:56;;;;;;;5.40;2.80;;;20.40;99.20;;;;;;5047960;28;20445;-51
2022/06/19 01:10:22;;;;;;;5.18;2.67;;;20.30;99.40;;;;;;5047152;28;20659;-51
2022/06/19 01:12:47;;;;;;;4.75;3.00;;;20.40;99.40;;;;;;5048233;28;20029;-51
2022/06/19 01:15:17;;;;;;;5.88;3.00;;;20.30;99.60;;;;;;5046562;28;20029;-49
2022/06/19 01:17:46;;;;;;;3.35;2.35;;;20.30;99.80;;;;;;5048424;28;20021;-49
2022/06/19 01:20:12;;;;;;;5.50;3.00;;;20.30;99.90;;;;;;5050987;28;20112;-51
2022/06/19 01:22:51;;;;;;;5.18;2.53;;;20.20;99.90;;;;;;5040231;28;20072;-51
2022/06/19 01:25:26;;;;;;;4.85;2.72;;;20.20;99.90;;;;;;5031539;28;20021;-48
2022/06/19 01:30:45;;;;;;;4.80;2.72;;;20.20;99.90;;;;;;5031033;28;20529;-51
2022/06/19 01:33:16;;;;;;;4.93;2.90;;;20.20;99.90;;;;;;5031396;28;20029;-51
2022/06/19 01:35:43;;;;;;;;;;;20.10;99.90;;;;;;5031845;28;20475;-52
2022/06/19 01:38:13;;;;;;;6.80;3.42;;;20.00;99.90;;;;;;5031175;28;19992;-50
2022/06/19 01:40:42;;;;;;;3.58;2.58;;;20.00;99.90;;;;;;5030827;28;20053;-51
2022/06/19 01:43:09;;;;;;;4.90;2.88;;;20.00;99.90;;;;;;5031170;28;20033;-52
2022/06/19 01:45:40;;;;;;;4.43;2.63;;;20.00;99.90;;;;;;5031023;28;20326;-50
2022/06/19 01:48:06;;;;;;;3.30;3.00;;;19.90;99.90;;;;;;5024556;28;20030;-52
2022/06/19 01:50:32;;;;;;;5.53;2.97;;;19.90;99.90;;;;;;5010569;28;20583;-50
2022/06/19 01:53:09;;;;;;;7.53;2.80;;;19.80;99.90;;;;;;5009524;28;20022;-51
2022/06/19 01:55:34;;;;;;;4.03;2.70;;;19.80;99.90;;;;;;5011468;28;20447;-50
2022/06/19 01:58:01;;;;;;;5.85;3.03;;;19.80;99.90;;;;;;5011970;28;20026;-51
2022/06/19 02:00:29;;;;;;;4.93;3.05;;;19.80;99.90;;;;;;5030556;28;20030;-49
2022/06/19 02:03:30;;;;;;;5.28;3.08;;;19.70;99.90;;;;;;5028394;28;20032;-51
2022/06/19 02:05:57;;;;;;;4.78;2.75;;;19.70;99.90;;;;;;5023682;28;20076;-51
2022/06/19 02:08:24;;;;;;;3.92;2.75;;;19.60;99.90;;;;;;5019102;28;20105;-50
2022/06/19 02:10:51;;;;;;;3.92;2.60;;;19.60;99.90;;;;;;5013577;28;20235;-51
2022/06/19 02:13:19;;;;;;;4.40;3.25;;;19.60;99.90;;;;;;5009555;28;20025;-52
2022/06/19 02:15:47;;;;;;;4.30;2.90;;;19.50;99.90;;;;;;5010680;28;20034;-50
2022/06/19 02:18:25;;;;;;;4.15;2.83;;;19.60;99.90;;;;;;5010792;28;20026;-51
2022/06/19 02:20:52;;;;;;;4.80;2.65;;;19.50;99.90;;;;;;5010023;28;20029;-49
2022/06/19 02:23:28;;;;;;;3.60;2.78;;;19.50;99.90;;;;;;5010623;28;20034;-49
2022/06/19 02:25:54;;;;;;;4.28;3.33;;;19.40;99.90;;;;;;5010495;28;20034;-51
2022/06/19 02:28:20;;;;;;;4.68;2.60;;;19.40;99.90;;;;;;5010329;28;20495;-50
2022/06/19 02:30:48;;;;;;;5.13;3.00;;;19.40;99.90;;;;;;5009763;28;20034;-50
2022/06/19 02:33:16;;;;;;;4.10;2.83;;;19.40;99.90;;;;;;5011987;28;20030;-51
2022/06/19 02:35:42;;;;;;;3.45;2.60;;;19.40;99.90;;;;;;5017774;28;20044;-51
2022/06/19 02:38:08;;;;;;;4.55;2.92;;;19.30;99.90;;;;;;5019958;28;20688;-51
2022/06/19 02:40:58;;;;;;;4.32;2.83;;;19.30;99.90;;;;;;5009647;28;20065;-51
2022/06/19 02:43:27;;;;;;;3.45;2.40;;;19.20;99.90;;;;;;5010775;28;20037;-50
2022/06/19 02:45:54;;;;;;;3.53;2.45;;;19.20;99.90;;;;;;5010687;28;20033;-49
2022/06/19 02:48:26;;;;;;;5.95;3.17;;;19.20;99.90;;;;;;5010425;28;20021;-48
2022/06/19 02:50:53;;;;;;;4.78;2.72;;;19.10;99.90;;;;;;5012139;28;20045;-52
2022/06/19 02:53:19;;;;;;;6.35;2.88;;;19.10;99.90;;;;;;5019216;28;20199;-50
2022/06/19 02:55:46;;;;;;;3.30;3.00;;;19.10;99.90;;;;;;5019681;28;20029;-49
2022/06/19 02:58:12;;;;;;;5.35;2.42;;;19.10;99.90;;;;;;5019548;28;20018;-51
2022/06/19 03:00:38;;;;;;;5.25;3.38;;;19.00;99.90;;;;;;5018767;28;20366;-49
2022/06/19 03:03:13;;;;;;;5.28;2.50;;;19.00;99.90;;;;;;5020487;28;20265;-51
2022/06/19 03:05:39;;;;;;;2.50;2.22;;;19.00;99.90;;;;;;5019219;28;20112;-51
2022/06/19 03:08:04;;;;;;;3.47;2.60;;;19.00;99.90;;;;;;5020882;28;20116;-48
2022/06/19 03:10:30;;;;;;;4.68;2.40;;;18.90;99.90;;;;;;5016786;28;20469;-52
2022/06/19 03:12:58;;;;;;;5.38;2.67;;;18.90;99.90;;;;;;5015159;28;20022;-49
2022/06/19 03:15:24;;;;;;;3.50;2.30;;;18.90;99.90;;;;;;5008526;28;20169;-52
2022/06/19 03:17:50;;;;;;;2.83;1.95;;;18.90;99.90;;;;;;5019041;28;20026;-49
2022/06/19 03:20:18;;;;;;;4.93;2.42;;;18.90;99.90;;;;;;5019403;28;20499;-51
2022/06/19 03:22:43;;;;;;;2.78;2.10;;;18.90;99.90;;;;;;5018825;28;20448;-51
2022/06/19 03:25:09;;;;;;;6.30;2.40;;;18.90;99.90;;;;;;5019930;28;20108;-51
2022/06/19 03:27:36;;;;;;;3.88;2.22;;;18.90;99.90;;;;;;5026560;28;20113;-51
2022/06/19 03:30:03;;;;;;;2.13;1.92;;;18.90;99.90;;;;;;5028600;28;20025;-51
2022/06/19 03:32:29;;;;;;;2.80;2.08;;;18.90;99.90;;;;;;5020312;28;20483;-50
2022/06/19 03:34:56;;;;;;;3.05;2.30;;;18.90;99.90;;;;;;5018137;28;20285;-51
2022/06/19 03:37:21;;;;;;;5.00;2.05;;;18.90;99.90;;;;;;5019004;28;20474;-49
2022/06/19 03:39:47;;;;;;;3.67;1.70;;;18.90;99.90;;;;;;5018970;28;20093;-51
2022/06/19 03:42:15;;;;;;;3.50;1.95;;;18.80;99.90;;;;;;5017357;28;20022;-51
2022/06/19 03:44:40;;;;;;;7.75;1.92;;;18.80;99.90;;;;;;5009652;28;20029;-52
2022/06/19 03:47:06;;;;;;;3.08;2.13;;;18.80;99.90;;;;;;5009270;28;20041;-52
2022/06/19 03:49:32;;;;;;;3.17;2.30;;;18.80;99.90;;;;;;5008700;28;20213;-51
2022/06/19 03:51:57;;;;;;;3.40;2.10;;;18.80;99.90;;;;;;5009454;28;20030;-52
2022/06/19 03:54:23;;;;;;;2.92;1.88;;;18.80;99.90;;;;;;5009493;28;20643;-52
2022/06/19 03:56:48;;;;;;;3.30;2.35;;;18.80;99.90;;;;;;5017924;28;20431;-51
2022/06/19 03:59:14;;;;;;;2.88;1.67;;;18.70;99.90;;;;;;5027051;28;20453;-48
2022/06/19 04:01:40;;;;;;;2.90;1.85;;;18.70;99.90;;;;;;5022799;28;20423;-48
2022/06/19 04:04:06;;;;;;;3.15;2.00;;;18.70;99.90;;;;;;5027799;28;20021;-50
2022/06/19 04:06:34;;;;;;;3.65;1.98;;;18.60;99.90;;;;;;5023982;28;20493;-51
2022/06/19 04:09:01;;;;;;;2.63;2.25;;;18.70;99.90;;;;;;5026865;28;20044;-48
2022/06/19 04:11:29;;;;;;;5.47;2.38;;;18.70;99.90;;;;;;5027193;28;20034;-50
2022/06/19 04:13:55;;;;;;;5.93;2.03;;;18.60;99.90;;;;;;5026374;28;20018;-49
2022/06/19 04:16:24;;;;;;;6.03;1.90;;;18.70;99.90;;;;;;5026293;28;20033;-51
2022/06/19 04:18:51;;;;;;;4.80;2.20;;;18.60;99.90;;;;;;5024895;28;20033;-47
2022/06/19 04:21:20;;;;;;;4.85;2.58;;;18.60;99.90;;;;;;5026528;28;20026;-48
2022/06/19 04:23:46;;;;;;;3.28;2.40;;;18.70;99.90;;;;;;5008535;28;20507;-49
2022/06/19 04:26:14;;;;;;;2.95;2.08;;;18.60;99.90;;;;;;5008462;28;20042;-48
2022/06/19 04:28:40;;;;;;;2.67;2.47;;;18.70;99.90;;;;;;5007990;28;20038;-48
2022/06/19 04:31:06;;;;;;;2.67;1.90;;;18.70;99.90;;;;;;5004368;28;20034;-48
2022/06/19 04:33:38;;;;;;;2.13;1.92;;;18.70;99.90;;;;;;5006508;28;20030;-48
2022/06/19 04:36:09;;;;;;;5.78;2.67;;;18.70;99.90;;;;;;5021603;28;20205;-52
2022/06/19 04:38:36;;;;;;;2.00;1.77;;;18.80;99.90;;;;;;5027436;28;20505;-51
2022/06/19 04:41:01;;;;;;;4.20;2.53;;;18.80;99.90;;;;;;5027382;28;20060;-49
2022/06/19 04:43:27;;;;;;;2.90;2.17;;;18.80;99.90;;;;;;5026291;28;20069;-48
2022/06/19 04:46:03;;;;;;;7.68;2.53;;;18.90;99.90;;;;;;5028018;28;20040;-51
2022/06/19 04:48:30;;;;;;;2.38;2.13;;;18.90;99.90;;;;;;5008077;28;20061;-51
2022/06/19 04:50:55;;;;;;;2.65;2.28;;;18.90;99.90;;;;;;5007982;28;20034;-52
2022/06/19 04:53:21;;;;;;;2.22;2.03;;;18.80;99.90;;;;;;5010008;28;20041;-50
2022/06/19 04:55:46;;;;;;;3.40;2.83;;;18.90;99.90;;;;;;5020430;28;20312;-52
2022/06/19 04:58:11;;;;;;;4.38;2.92;;;18.90;99.90;;;;;;5012108;28;20042;-52
2022/06/19 05:00:39;;;;;;;3.33;2.28;;;18.90;99.90;;;;;;5011679;28;20029;-53
2022/06/19 05:03:05;;;;;;;4.18;2.45;;;18.90;99.90;;;;;;5010842;28;20057;-52
2022/06/19 05:05:30;;;;;;;7.20;2.75;;;18.80;99.90;;;;;;5011969;28;20066;-51
2022/06/19 05:07:55;;;;;;;3.10;2.72;;;18.90;99.90;;;;;;5010857;28;20044;-50
2022/06/19 05:10:21;;;;;;;4.15;2.75;;;19.00;99.90;;;;;;5011474;28;20040;-51
2022/06/19 05:12:47;;;;;;;4.30;2.30;;;19.00;99.90;;;;;;5011967;28;20018;-48
2022/06/19 05:15:13;;;;;;;2.95;2.75;;;19.10;99.90;;;;;;5012061;28;20220;-49
2022/06/19 05:17:38;;;;;;;7.63;3.40;;;19.20;99.90;;;;;;5011855;28;20084;-52
2022/06/19 05:20:05;;;;;;;3.90;2.35;;;19.20;99.90;;;;;;5011205;28;20391;-51
2022/06/19 05:22:31;;;;;;;3.65;3.03;;;19.10;99.90;;;;;;5010573;28;20479;-52
2022/06/19 05:24:56;;;;;;;3.55;2.50;;;19.20;99.90;;;;;;5011694;28;20021;-51
2022/06/19 05:27:22;;;;;;;3.25;2.60;;;19.20;99.90;;;;;;5011592;28;20022;-51
2022/06/19 05:29:48;;;;;;;3.60;3.03;;;19.30;99.90;;;;;;5011023;28;20670;-51
2022/06/19 05:32:13;;;;;;;5.28;2.65;;;19.30;99.90;;;;;;5011592;28;20516;-51
2022/06/19 05:34:39;;;;;;;2.78;2.53;;;19.30;99.90;;;;;;5011798;28;20034;-51
2022/06/19 05:37:05;;;;;;;4.47;3.15;;;19.30;99.90;;;;;;5011438;28;20022;-52
2022/06/19 05:39:30;;;;;;;3.15;2.85;;;19.40;99.90;;;;;;5026887;28;20063;-52
2022/06/19 05:41:57;;;;;;;6.35;3.13;;;19.40;99.90;;;;;;5019105;28;20610;-51
2022/06/19 05:44:24;;;;;;;3.30;3.00;;;19.40;99.90;;;;;;5013968;28;20018;-47
2022/06/19 05:46:50;;;;;;;4.22;3.33;;;19.50;99.90;;;;;;5016219;28;20387;-49
2022/06/19 05:49:16;;;;;;;6.03;3.88;;;19.60;99.90;;;;;;5022054;28;20515;-50
2022/06/19 05:51:42;;;;;;;6.68;3.40;;;19.60;99.90;;;;;;5018218;28;20109;-49
2022/06/19 05:54:08;;;;;;;3.40;3.10;;;19.70;99.90;;;;;;5021304;28;20287;-51
2022/06/19 05:56:33;;;;;;;7.85;4.55;;;19.70;99.90;;;;;;5019748;28;20025;-50
2022/06/19 05:59:00;;;;;;;4.70;3.63;;;19.80;99.90;;;;;;5021488;28;20041;-50
2022/06/19 06:01:28;;;;;;;3.97;3.53;;;19.90;99.90;;;;;;5019168;28;20028;-49
2022/06/19 06:03:54;;;;;;;6.15;4.07;;;19.90;99.90;;;;;;5020640;28;20029;-51
2022/06/19 06:06:23;;;;;;;5.50;3.88;;;20.00;99.90;;;;;;5025019;28;20578;-48
2022/06/19 06:08:49;;;;;;;4.93;3.53;;;20.10;99.90;;;;;;5011169;28;20396;-49
2022/06/19 06:11:15;;;;;;;5.57;3.92;;;20.10;99.90;;;;;;5010006;28;20037;-50
2022/06/19 06:13:41;;;;;;;6.85;4.30;;;20.20;99.90;;;;;;5009539;28;20053;-51
2022/06/19 06:16:07;;;;;;;6.70;4.38;;;20.30;99.90;;;;;;5010800;28;20542;-49
2022/06/19 06:18:33;;;;;;;6.00;4.35;;;20.30;99.90;;;;;;5010887;28;20022;-51
2022/06/19 06:21:04;;;;;;;6.13;4.78;;;20.40;99.90;;;;;;5009895;28;20069;-49
2022/06/19 06:23:30;;;;;;;6.30;3.80;;;20.50;99.90;;;;;;5011021;28;20030;-52
2022/06/19 06:26:00;;;;;;;4.95;3.70;;;20.60;99.90;;;;;;5009334;28;20118;-51
2022/06/19 06:28:26;;;;;;;8.43;4.85;;;20.60;99.90;;;;;;5010064;28;20125;-48
2022/06/19 06:30:51;;;;;;;5.80;4.10;;;20.70;99.90;;;;;;5009583;28;20101;-51
2022/06/19 06:33:17;;;;;;;7.30;4.60;;;20.80;99.90;;;;;;5010341;28;20602;-51
2022/06/19 06:35:42;;;;;;;8.80;4.32;;;20.90;99.90;;;;;;5010093;28;20062;-50
2022/06/19 06:38:08;;;;;;;6.60;4.82;;;21.00;99.90;;;;;;5009942;28;20030;-50
2022/06/19 06:40:33;;;;;;;8.23;4.38;;;21.00;99.90;;;;;;5009642;28;20038;-50
2022/06/19 06:42:59;;;;;;;8.35;5.25;;;21.10;99.90;;;;;;5010532;28;20037;-57
2022/06/19 06:45:24;;;;;;;6.85;4.85;;;21.20;99.90;;;;;;5010299;28;20201;-52
2022/06/19 06:47:50;;;;;;;5.82;4.43;;;21.30;99.90;;;;;;5010374;28;20287;-52
2022/06/19 06:50:16;;;;;;;8.05;4.90;;;21.40;99.90;;;;;;5009643;28;20030;-51
2022/06/19 06:52:41;;;;;;;8.02;5.65;;;21.40;99.90;;;;;;5010268;28;20076;-51
2022/06/19 06:55:07;;;;;;;6.00;4.65;;;21.50;99.90;;;;;;5010129;28;20033;-51
2022/06/19 06:57:33;;;;;;;8.27;4.70;;;21.60;99.90;;;;;;5010106;28;20113;-50
2022/06/19 06:59:58;;;;;;;4.70;4.30;;;21.70;99.90;;;;;;5009387;28;20437;-51
2022/06/19 07:02:24;;;;;;;6.28;4.80;;;21.70;99.90;;;;;;5010057;28;20108;-49
2022/06/19 07:04:49;;;;;;;4.80;4.07;;;21.80;99.90;;;;;;5009842;28;20037;-51
2022/06/19 07:07:15;;;;;;;8.43;4.85;;;21.90;99.90;;;;;;5009808;28;20033;-51
2022/06/19 07:09:40;;;;;;;5.93;4.30;;;22.00;99.90;;;;;;5009069;28;20028;-51
2022/06/19 07:12:06;;;;;;;9.02;4.82;;;22.00;99.90;;;;;;5009744;28;20034;-51
2022/06/19 07:14:32;;;;;;;5.38;4.45;;;22.00;99.90;;;;;;5009813;28;20030;-50
2022/06/19 07:16:57;;;;;;;7.32;3.90;;;22.10;99.90;;;;;;5009480;28;20021;-50
2022/06/19 07:19:23;;;;;;;6.57;4.20;;;22.20;99.90;;;;;;5009909;28;20029;-51
2022/06/19 07:21:49;;;;;;;6.88;4.28;;;22.20;99.90;;;;;;5009166;28;20026;-51
2022/06/19 07:24:14;;;;;;;8.10;5.00;;;22.30;99.90;;;;;;5012010;28;20048;-51
2022/06/19 07:26:40;;;;;;;6.25;3.97;;;22.40;99.90;;;;;;5029306;28;20071;-51
2022/06/19 07:29:07;;;;;;;9.40;4.82;;;22.50;99.90;;;;;;5029358;28;20635;-52
2022/06/19 07:31:32;;;;;;;8.30;4.57;;;22.70;99.20;;;;;;5027092;28;20091;-50
2022/06/19 07:33:58;;;;;;;5.32;3.88;;;22.70;99.10;;;;;;5029517;28;20543;-52
2022/06/19 07:36:24;;;;;;;6.68;3.70;;;22.80;99.30;;;;;;5029000;28;20028;-48
2022/06/19 07:38:50;;;;;;;7.18;3.85;;;22.80;99.20;;;;;;5027430;28;20368;-50
2022/06/19 07:41:16;;;;;;;6.80;3.70;;;23.00;98.80;;;;;;5028317;28;20204;-51
2022/06/19 07:43:43;;;;;;;11.65;4.07;;;23.20;98.70;;;;;;5028886;28;20497;-50
2022/06/19 07:46:10;;;;;;;5.70;3.80;;;23.40;97.90;;;;;;5028831;28;20028;-52
2022/06/19 07:51:20;;;;;;;5.72;3.53;;;23.60;97.20;;;;;;5008454;28;20176;-52
2022/06/19 07:53:45;;;;;;;5.72;3.80;;;23.90;96.30;;;;;;5009193;28;20104;-51
2022/06/19 07:56:11;;;;;;;3.05;2.72;;;24.00;95.90;;;;;;5009251;28;20037;-51
2022/06/19 07:58:37;;;;;;;4.32;3.35;;;24.10;95.80;;;;;;5009431;28;20088;-49
2022/06/19 08:01:03;;;;;;;13.30;4.28;;;24.20;95.50;;;;;;5008712;28;20026;-49
2022/06/19 08:03:29;;;;;;;9.30;3.60;;;24.40;94.70;;;;;;5008903;28;20404;-50
2022/06/19 08:05:54;;;;;;;6.25;3.55;;;24.60;94.50;;;;;;5014330;28;20036;-51
2022/06/19 08:08:26;;;;;;;7.05;3.55;;;24.80;94.10;;;;;;5024695;28;20499;-52
2022/06/19 08:10:54;;;;;;;6.88;4.00;;;25.20;93.60;;;;;;5026833;28;20441;-52
2022/06/19 08:13:22;;;;;;;8.70;3.13;;;25.80;92.60;;;;;;5029412;28;20025;-53
2022/06/19 08:15:52;;;;;;;7.43;3.13;;;26.70;90.60;;;;;;5035444;28;20386;-51
2022/06/19 08:18:19;;;;;;;6.93;3.33;;;27.70;89.00;;;;;;5018779;28;20033;-52
2022/06/19 08:20:45;;;;;;;6.22;3.05;;;28.80;83.60;;;;;;5016717;28;20022;-51
2022/06/19 08:23:11;;;;;;;6.10;2.58;;;29.50;78.40;;;;;;5017258;28;20033;-52
2022/06/19 08:25:37;;;;;;;4.82;2.67;;;30.20;75.50;;;;;;5018851;28;20091;-53
2022/06/19 08:28:03;;;;;;;6.22;3.00;;;30.70;73.60;;;;;;5019453;28;20109;-52
2022/06/19 08:30:35;;;;;;;6.53;2.90;;;31.20;70.60;;;;;;5026025;28;20124;-53
2022/06/19 08:33:00;;;;;;;7.70;3.00;;;32.10;68.30;;;;;;5031901;28;20395;-53
2022/06/19 08:35:28;;;;;;;7.45;3.13;;;32.50;65.00;;;;;;5031997;28;20025;-53
2022/06/19 08:37:58;;;;;;;9.60;2.75;;;32.80;64.20;;;;;;5031801;28;20018;-53
2022/06/19 08:40:51;;;;;;;7.32;2.80;;;33.20;62.30;;;;;;5031495;28;20486;-54
2022/06/19 08:43:38;;;;;;;9.05;2.83;;;33.20;61.10;;;;;;5031944;28;20398;-54
2022/06/19 08:46:24;;;;;;;6.63;2.80;;;33.60;59.10;;;;;;5031841;28;20376;-54
2022/06/19 08:49:21;;;;;;;7.18;3.10;;;34.30;58.90;;;;;;5022903;28;20049;-53
2022/06/19 08:52:20;;;;;;;5.28;3.10;;;33.80;58.70;;;;;;5027411;28;20439;-52
2022/06/19 08:55:08;;;;;;;8.27;3.05;;;34.60;56.20;;;;;;5020065;28;20462;-53
2022/06/19 08:57:55;;;;;;;10.70;2.92;;;34.50;56.20;;;;;;5023421;28;20033;-54
2022/06/19 09:00:30;;;;;;;10.05;3.15;;;34.80;56.20;;;;;;5022573;28;20487;-54
2022/06/19 09:03:02;;;;;;;10.80;3.05;;;34.50;55.20;;;;;;5020992;28;20399;-54
2022/06/19 09:06:04;;;;;;;4.90;2.95;;;34.50;55.00;;;;;;5015305;28;20060;-54
2022/06/19 09:08:57;;;;;;;8.60;3.33;;;35.20;54.40;;;;;;5011733;28;20065;-53
2022/06/19 09:11:50;;;;;;;11.65;3.55;;;35.70;53.60;;;;;;5011364;28;20459;-54
2022/06/19 09:14:44;;;;;;;9.30;2.88;;;35.50;53.20;;;;;;5011818;28;20018;-54
2022/06/19 09:17:20;;;;;;;7.70;2.97;;;35.50;53.50;;;;;;5012087;28;20424;-54
2022/06/19 09:19:50;;;;;;;13.00;3.45;;;36.20;52.40;;;;;;5009857;28;20075;-54
2022/06/19 09:22:35;;;;;;;6.85;3.22;;;36.50;51.00;;;;;;5011738;28;20109;-54
2022/06/19 09:25:22;;;;;;;9.50;3.20;;;36.40;51.10;;;;;;5011631;28;20483;-54
2022/06/19 09:27:57;;;;;;;7.30;3.20;;;37.00;51.70;;;;;;5011714;28;20030;-54
2022/06/19 09:30:34;;;;;;;10.20;3.00;;;37.10;50.80;;;;;;5014951;28;20117;-54
2022/06/19 09:33:09;;;;;;;10.32;3.13;;;37.00;50.40;;;;;;5021028;28;20363;-54
2022/06/19 09:35:42;;;;;;;6.47;2.63;;;36.60;51.30;;;;;;5019088;28;20136;-54
2022/06/19 09:38:15;;;;;;;9.15;4.38;;;36.40;51.40;;;;;;5011778;28;20022;-54
2022/06/19 09:40:44;;;;;;;8.02;2.83;;;36.20;51.20;;;;;;5010604;28;20269;-54
2022/06/19 09:43:36;;;;;;;9.52;3.65;;;35.90;51.20;;;;;;5011374;28;20022;-54
2022/06/19 09:46:09;;;;;;;7.00;2.88;;;35.70;51.90;;;;;;5011348;28;20056;-53
2022/06/19 09:48:40;;;;;;;12.23;3.28;;;35.70;52.30;;;;;;5008898;28;20076;-53
2022/06/19 09:51:24;;;;;;;9.80;3.10;;;35.70;51.50;;;;;;5018500;28;20451;-52
2022/06/19 09:54:02;;;;;;;11.50;3.67;;;35.20;51.70;;;;;;5030565;28;20111;-53
2022/06/19 09:56:51;;;;;;;11.80;3.60;;;34.70;52.60;;;;;;5029886;28;20022;-54
2022/06/19 09:59:36;;;;;;;7.40;3.58;;;34.60;51.90;;;;;;5018296;28;20439;-53
2022/06/19 10:02:14;;;;;;;15.90;4.25;;;34.40;53.30;;;;;;5021912;28;20056;-53
2022/06/19 10:04:46;;;;;;;7.95;3.20;;;34.60;53.30;;;;;;5021500;28;20407;-54
2022/06/19 10:07:23;;;;;;;12.60;3.45;;;35.30;52.20;;;;;;5019047;28;20017;-53
2022/06/19 10:09:55;;;;;;;7.30;3.15;;;35.50;51.60;;;;;;5023349;28;20033;-53
2022/06/19 10:12:35;;;;;;;11.20;3.65;;;36.30;50.10;;;;;;5030000;28;20132;-53
2022/06/19 10:15:06;;;;;;;11.57;3.63;;;36.50;48.90;;;;;;5028832;28;20029;-54
2022/06/19 10:18:07;;;;;;;13.27;3.40;;;35.90;50.50;;;;;;5028509;28;20029;-53
2022/06/19 10:21:07;;;;;;;11.02;3.85;;;36.10;49.40;;;;;;5027811;28;20021;-54
2022/06/19 10:23:40;;;;;;;10.48;3.78;;;36.00;50.20;;;;;;5029160;28;20036;-53
2022/06/19 10:26:40;;;;;;;14.88;3.92;;;36.60;50.00;;;;;;5030462;28;20018;-54
2022/06/19 10:29:30;;;;;;;7.95;3.85;;;37.10;49.70;;;;;;5026903;28;20108;-54
2022/06/19 10:32:27;;;;;;;11.32;4.03;;;36.30;48.90;;;;;;5025022;28;20025;-54
2022/06/19 10:35:18;;;;;;;18.00;4.35;;;36.40;50.40;;;;;;5018722;28;20029;-54
2022/06/19 10:38:05;;;;;;;12.07;4.07;;;36.50;49.70;;;;;;5029588;28;20030;-54
2022/06/19 10:40:55;;;;;;;12.20;4.63;;;37.10;49.00;;;;;;5028908;28;20026;-54
2022/06/19 10:43:47;;;;;;;11.32;3.63;;;36.60;50.10;;;;;;5029220;28;20025;-54
2022/06/19 10:46:16;;;;;;;11.40;4.28;;;36.90;49.30;;;;;;5027450;28;20028;-54
2022/06/19 10:49:01;;;;;;;8.50;3.72;;;36.70;48.60;;;;;;5027498;28;20479;-53
2022/06/19 10:52:10;;;;;;;12.65;3.83;;;36.20;49.50;;;;;;5027152;28;20390;-54
2022/06/19 10:54:59;;;;;;;9.93;3.65;;;36.40;50.00;;;;;;5026354;28;20064;-53
2022/06/19 10:57:49;;;;;;;12.65;4.20;;;36.60;49.70;;;;;;5011081;28;20311;-54
2022/06/19 11:00:15;;;;;;;8.73;3.22;;;36.60;50.50;;;;;;5027911;28;20033;-53
2022/06/19 11:05:53;;;;;;;13.15;4.00;;;37.60;47.80;;;;;;5028564;28;20079;-54
2022/06/19 11:08:21;;;;;;;11.68;4.30;;;37.10;48.10;;;;;;5029331;28;20061;-53
2022/06/19 11:10:52;;;;;;;10.27;4.15;;;37.00;48.60;;;;;;5026045;28;20428;-53
2022/06/19 11:13:19;;;;;;;13.93;4.72;;;37.00;49.40;;;;;;5026819;28;20037;-53
2022/06/19 11:15:59;;;;;;;14.05;4.38;;;36.50;48.80;;;;;;5025716;28;20048;-53
2022/06/19 11:18:25;;;;;;;11.27;3.72;;;35.80;49.80;;;;;;5025552;28;20415;-53
2022/06/19 11:21:11;;;;;;;18.10;4.68;;;35.80;49.90;;;;;;5026346;28;20028;-53
2022/06/19 11:23:51;;;;;;;11.10;3.67;;;35.40;50.60;;;;;;5027060;28;20025;-53
2022/06/19 11:26:19;;;;;;;12.27;4.03;;;34.80;50.50;;;;;;5027286;28;20056;-52
2022/06/19 11:29:01;;;;;;;12.52;4.25;;;34.60;51.50;;;;;;5012796;28;20037;-53
2022/06/19 11:31:26;;;;;;;10.25;4.05;;;34.70;51.40;;;;;;5010778;28;20034;-54
2022/06/19 11:34:00;;;;;;;12.05;4.13;;;34.40;50.90;;;;;;5025196;28;20514;-54
2022/06/19 11:36:39;;;;;;;7.28;3.67;;;35.10;51.40;;;;;;5026204;28;20590;-54
2022/06/19 11:39:35;;;;;;;9.90;4.30;;;35.90;50.80;;;;;;5028004;28;20025;-54
2022/06/19 11:42:26;;;;;;;10.88;3.67;;;36.60;49.30;;;;;;5023351;28;20041;-54
2022/06/19 11:44:55;;;;;;;9.60;3.67;;;36.30;49.60;;;;;;5026305;28;20461;-54
2022/06/19 11:47:39;;;;;;;12.95;4.15;;;36.80;49.10;;;;;;5026473;28;20479;-55
2022/06/19 11:50:08;;;;;;;9.13;3.80;;;35.80;49.10;;;;;;5027334;28;20029;-53
2022/06/19 11:52:34;;;;;;;7.30;3.92;;;36.30;49.50;;;;;;5027617;28;20025;-54
2022/06/19 11:55:01;;;;;;;10.18;4.20;;;36.40;49.00;;;;;;5025214;28;20026;-54
2022/06/19 11:57:31;;;;;;;15.50;4.20;;;36.20;48.70;;;;;;5025998;28;20482;-54
2022/06/19 12:00:00;;;;;;;13.55;3.58;;;36.10;49.50;;;;;;5027087;28;20265;-53
2022/06/19 12:02:31;;;;;;;9.83;4.10;;;36.00;49.20;;;;;;5014526;28;20042;-54
2022/06/19 12:05:02;;;;;;;12.38;3.58;;;35.50;49.90;;;;;;5007879;28;20200;-53
2022/06/19 12:07:34;;;;;;;6.80;3.40;;;35.20;50.40;;;;;;5018894;28;20033;-54
2022/06/19 12:10:01;;;;;;;12.15;3.72;;;34.90;50.00;;;;;;5023529;28;20029;-54
2022/06/19 12:12:32;;;;;;;10.02;3.88;;;34.50;51.60;;;;;;5027862;28;20045;-54
2022/06/19 12:15:22;;;;;;;9.85;3.88;;;34.30;51.70;;;;;;5025071;28;20469;-54
2022/06/19 12:18:02;;;;;;;9.35;4.55;;;33.90;52.00;;;;;;5025852;28;20036;-54
2022/06/19 12:20:31;;;;;;;14.65;4.43;;;33.40;52.10;;;;;;5017730;28;20021;-54
2022/06/19 12:23:16;;;;;;;10.73;4.22;;;33.40;53.10;;;;;;5019642;28;20537;-53
2022/06/19 12:25:51;;;;;;;7.43;3.85;;;32.60;53.70;;;;;;5025883;28;20418;-55
2022/06/19 12:28:29;;;;;;;7.97;4.22;;;32.40;54.40;;;;;;5026455;28;20022;-54
2022/06/19 12:31:02;;;;;;;9.05;4.05;;;32.10;55.50;;;;;;5024818;28;20034;-53
2022/06/19 12:34:02;;;;;;;13.38;4.75;;;31.60;54.90;;;;;;5021296;28;20021;-54
2022/06/19 12:36:32;;;;;;;13.05;4.10;;;31.50;55.50;;;;;;5025458;28;20072;-54
2022/06/19 12:38:57;;;;;;;;;;;31.10;56.10;;;;;;5027860;28;20479;-53
2022/06/19 12:41:45;;;;;;;17.92;4.63;;;30.90;57.00;;;;;;5026411;28;19916;-54
2022/06/19 12:44:22;;;;;;;11.32;4.43;;;30.70;56.80;;;;;;5027255;28;20021;-54
2022/06/19 12:47:00;;;;;;;14.60;4.10;;;30.40;58.10;;;;;;5025995;28;20037;-53
2022/06/19 12:49:57;;;;;;;9.63;4.28;;;30.10;59.20;;;;;;5027282;28;20034;-53
2022/06/19 12:52:32;;;;;;;8.63;3.85;;;30.10;59.20;;;;;;5021869;28;20467;-54
2022/06/19 12:55:17;;;;;;;15.88;5.43;;;30.00;59.00;;;;;;5022754;28;20040;-54
2022/06/19 12:57:56;;;;;;;12.05;4.28;;;30.00;59.50;;;;;;5046875;28;20036;-53
2022/06/19 13:00:52;;;;;;;9.73;4.63;;;29.80;59.50;;;;;;5025441;28;20029;-52
2022/06/19 13:03:30;;;;;;;11.05;4.30;;;29.80;59.40;;;;;;5024996;28;20052;-53
2022/06/19 13:06:05;;;;;;;14.32;4.80;;;29.80;60.00;;;;;;5025294;28;20076;-52
2022/06/19 13:08:44;;;;;;;16.20;4.85;;;29.90;60.00;;;;;;5020091;28;20029;-52
2022/06/19 13:11:23;;;;;;;11.83;4.23;;;29.60;59.90;;;;;;5016169;28;20540;-54
2022/06/19 13:14:21;;;;;;;10.73;4.25;;;29.50;59.90;;;;;;5018542;28;20615;-54
2022/06/19 13:17:00;;;;;;;9.20;4.38;;;29.70;59.70;;;;;;5030076;28;20013;-53